sensor_id;sensor_type;location;lat;lon;timestamp;P1;durP1;ratioP1;P2;durP2;ratioP2
52650;SDS011;38537;47.226;39.702;2023-04-03T00:01:16;2.80;;;1.90;;
52650;SDS011;38537;47.226;39.702;2023-04-03T00:03:43;3.83;;;1.80;;
52650;SDS011;38537;47.226;39.702;2023-04-03T00:06:11;3.67;;;2.00;;
52650;SDS011;38537;47.226;39.702;2023-04-03T00:08:39;3.92;;;2.00;;
52650;SDS011;38537;47.226;39.702;2023-04-03T00:11:07;2.45;;;1.70;;
52650;SDS011;38537;47.226;39.702;2023-04-03T00:13:35;2.83;;;2.10;;
52650;SDS011;38537;47.226;39.702;2023-04-03T00:16:04;2.92;;;2.00;;
52650;SDS011;38537;47.226;39.702;2023-04-03T00:18:31;2.78;;;1.98;;
52650;SDS011;38537;47.226;39.702;2023-04-03T00:20:59;1.98;;;1.77;;
52650;SDS011;38537;47.226;39.702;2023-04-03T00:23:26;2.20;;;2.00;;
52650;SDS011;38537;47.226;39.702;2023-04-03T00:25:53;2.47;;;1.65;;
52650;SDS011;38537;47.226;39.702;2023-04-03T00:28:21;2.45;;;2.00;;
52650;SDS011;38537;47.226;39.702;2023-04-03T00:30:49;3.25;;;1.90;;
52650;SDS011;38537;47.226;39.702;2023-04-03T00:33:16;2.30;;;2.10;;
52650;SDS011;38537;47.226;39.702;2023-04-03T00:35:44;3.33;;;2.20;;
52650;SDS011;38537;47.226;39.702;2023-04-03T00:38:13;2.45;;;1.88;;
52650;SDS011;38537;47.226;39.702;2023-04-03T00:40:43;2.60;;;2.10;;
52650;SDS011;38537;47.226;39.702;2023-04-03T00:43:14;3.70;;;2.28;;
52650;SDS011;38537;47.226;39.702;2023-04-03T00:45:50;3.47;;;2.20;;
52650;SDS011;38537;47.226;39.702;2023-04-03T00:48:20;2.55;;;1.90;;
52650;SDS011;38537;47.226;39.702;2023-04-03T00:51:07;3.60;;;2.10;;
52650;SDS011;38537;47.226;39.702;2023-04-03T00:53:50;3.42;;;2.42;;
52650;SDS011;38537;47.226;39.702;2023-04-03T00:56:23;3.90;;;2.30;;
52650;SDS011;38537;47.226;39.702;2023-04-03T00:58:55;3.30;;;2.20;;
52650;SDS011;38537;47.226;39.702;2023-04-03T01:01:29;4.43;;;2.33;;
52650;SDS011;38537;47.226;39.702;2023-04-03T01:04:00;2.65;;;1.90;;
52650;SDS011;38537;47.226;39.702;2023-04-03T01:06:31;3.10;;;1.90;;
52650;SDS011;38537;47.226;39.702;2023-04-03T01:09:09;3.35;;;2.20;;
52650;SDS011;38537;47.226;39.702;2023-04-03T01:11:37;2.88;;;2.13;;
52650;SDS011;38537;47.226;39.702;2023-04-03T01:14:05;3.55;;;1.90;;
52650;SDS011;38537;47.226;39.702;2023-04-03T01:16:33;3.08;;;2.05;;
52650;SDS011;38537;47.226;39.702;2023-04-03T01:19:01;4.25;;;2.20;;
52650;SDS011;38537;47.226;39.702;2023-04-03T01:24:22;2.58;;;2.10;;
52650;SDS011;38537;47.226;39.702;2023-04-03T01:27:03;2.67;;;2.05;;
52650;SDS011;38537;47.226;39.702;2023-04-03T01:29:32;4.25;;;2.40;;
52650;SDS011;38537;47.226;39.702;2023-04-03T01:32:00;2.42;;;1.70;;
52650;SDS011;38537;47.226;39.702;2023-04-03T01:34:30;2.97;;;2.00;;
52650;SDS011;38537;47.226;39.702;2023-04-03T01:36:58;3.20;;;1.88;;
52650;SDS011;38537;47.226;39.702;2023-04-03T01:39:26;3.47;;;2.20;;
52650;SDS011;38537;47.226;39.702;2023-04-03T01:41:53;3.22;;;2.30;;
52650;SDS011;38537;47.226;39.702;2023-04-03T01:44:29;4.43;;;2.40;;
52650;SDS011;38537;47.226;39.702;2023-04-03T01:46:56;3.17;;;2.10;;
52650;SDS011;38537;47.226;39.702;2023-04-03T01:49:25;3.20;;;2.30;;
52650;SDS011;38537;47.226;39.702;2023-04-03T01:51:52;3.50;;;1.92;;
52650;SDS011;38537;47.226;39.702;2023-04-03T01:54:19;2.22;;;2.00;;
52650;SDS011;38537;47.226;39.702;2023-04-03T01:56:46;3.17;;;2.00;;
52650;SDS011;38537;47.226;39.702;2023-04-03T01:59:14;6.15;;;2.67;;
52650;SDS011;38537;47.226;39.702;2023-04-03T02:01:43;3.80;;;2.47;;
52650;SDS011;38537;47.226;39.702;2023-04-03T02:04:12;3.95;;;2.20;;
52650;SDS011;38537;47.226;39.702;2023-04-03T02:06:40;3.72;;;2.67;;
52650;SDS011;38537;47.226;39.702;2023-04-03T02:09:07;2.83;;;2.38;;
52650;SDS011;38537;47.226;39.702;2023-04-03T02:11:34;3.80;;;2.40;;
52650;SDS011;38537;47.226;39.702;2023-04-03T02:14:02;3.28;;;2.25;;
52650;SDS011;38537;47.226;39.702;2023-04-03T02:16:29;2.95;;;2.40;;
52650;SDS011;38537;47.226;39.702;2023-04-03T02:18:57;3.42;;;2.35;;
52650;SDS011;38537;47.226;39.702;2023-04-03T02:21:24;6.28;;;2.53;;
52650;SDS011;38537;47.226;39.702;2023-04-03T02:23:52;4.72;;;2.20;;
52650;SDS011;38537;47.226;39.702;2023-04-03T02:26:20;3.83;;;2.95;;
52650;SDS011;38537;47.226;39.702;2023-04-03T02:28:47;5.18;;;2.60;;
52650;SDS011;38537;47.226;39.702;2023-04-03T02:31:15;3.63;;;2.95;;
52650;SDS011;38537;47.226;39.702;2023-04-03T02:33:44;4.13;;;2.70;;
52650;SDS011;38537;47.226;39.702;2023-04-03T02:36:13;4.78;;;2.92;;
52650;SDS011;38537;47.226;39.702;2023-04-03T02:38:44;6.70;;;2.97;;
52650;SDS011;38537;47.226;39.702;2023-04-03T02:41:12;5.95;;;2.83;;
52650;SDS011;38537;47.226;39.702;2023-04-03T02:43:40;4.75;;;3.03;;
52650;SDS011;38537;47.226;39.702;2023-04-03T02:46:07;4.82;;;2.80;;
52650;SDS011;38537;47.226;39.702;2023-04-03T02:48:35;3.55;;;2.95;;
52650;SDS011;38537;47.226;39.702;2023-04-03T02:51:03;4.93;;;3.13;;
52650;SDS011;38537;47.226;39.702;2023-04-03T02:53:30;7.25;;;3.30;;
52650;SDS011;38537;47.226;39.702;2023-04-03T02:56:02;7.70;;;3.38;;
52650;SDS011;38537;47.226;39.702;2023-04-03T02:58:30;5.22;;;3.15;;
52650;SDS011;38537;47.226;39.702;2023-04-03T03:00:59;4.97;;;2.95;;
52650;SDS011;38537;47.226;39.702;2023-04-03T03:03:27;5.45;;;3.28;;
52650;SDS011;38537;47.226;39.702;2023-04-03T03:06:01;5.68;;;3.47;;
52650;SDS011;38537;47.226;39.702;2023-04-03T03:08:35;7.07;;;3.30;;
52650;SDS011;38537;47.226;39.702;2023-04-03T03:11:04;5.18;;;2.85;;
52650;SDS011;38537;47.226;39.702;2023-04-03T03:13:32;7.65;;;3.35;;
52650;SDS011;38537;47.226;39.702;2023-04-03T03:16:00;8.70;;;3.40;;
52650;SDS011;38537;47.226;39.702;2023-04-03T03:18:28;6.95;;;3.60;;
52650;SDS011;38537;47.226;39.702;2023-04-03T03:20:56;4.97;;;3.40;;
52650;SDS011;38537;47.226;39.702;2023-04-03T03:23:26;5.40;;;3.58;;
52650;SDS011;38537;47.226;39.702;2023-04-03T03:25:54;5.72;;;3.67;;
52650;SDS011;38537;47.226;39.702;2023-04-03T03:28:26;4.38;;;3.25;;
52650;SDS011;38537;47.226;39.702;2023-04-03T03:30:54;4.97;;;3.40;;
52650;SDS011;38537;47.226;39.702;2023-04-03T03:33:22;5.78;;;3.60;;
52650;SDS011;38537;47.226;39.702;2023-04-03T03:35:49;6.03;;;3.83;;
52650;SDS011;38537;47.226;39.702;2023-04-03T03:38:18;6.88;;;3.63;;
52650;SDS011;38537;47.226;39.702;2023-04-03T03:40:49;6.40;;;3.63;;
52650;SDS011;38537;47.226;39.702;2023-04-03T03:43:19;6.18;;;3.78;;
52650;SDS011;38537;47.226;39.702;2023-04-03T03:45:52;5.43;;;3.85;;
52650;SDS011;38537;47.226;39.702;2023-04-03T03:48:22;4.68;;;3.40;;
52650;SDS011;38537;47.226;39.702;2023-04-03T03:50:50;4.40;;;3.33;;
52650;SDS011;38537;47.226;39.702;2023-04-03T03:53:20;4.53;;;3.03;;
52650;SDS011;38537;47.226;39.702;2023-04-03T03:55:50;6.05;;;3.70;;
52650;SDS011;38537;47.226;39.702;2023-04-03T03:58:20;5.10;;;3.92;;
52650;SDS011;38537;47.226;39.702;2023-04-03T04:00:47;5.85;;;3.63;;
52650;SDS011;38537;47.226;39.702;2023-04-03T04:03:14;7.78;;;4.13;;
52650;SDS011;38537;47.226;39.702;2023-04-03T04:05:44;6.28;;;4.13;;
52650;SDS011;38537;47.226;39.702;2023-04-03T04:08:12;8.02;;;3.38;;
52650;SDS011;38537;47.226;39.702;2023-04-03T04:10:40;7.75;;;3.83;;
52650;SDS011;38537;47.226;39.702;2023-04-03T04:13:10;6.85;;;3.75;;
52650;SDS011;38537;47.226;39.702;2023-04-03T04:15:38;6.07;;;3.95;;
52650;SDS011;38537;47.226;39.702;2023-04-03T04:18:06;5.97;;;3.75;;
52650;SDS011;38537;47.226;39.702;2023-04-03T04:20:33;6.65;;;3.78;;
52650;SDS011;38537;47.226;39.702;2023-04-03T04:23:01;6.82;;;3.95;;
52650;SDS011;38537;47.226;39.702;2023-04-03T04:25:29;5.40;;;4.00;;
52650;SDS011;38537;47.226;39.702;2023-04-03T04:27:57;8.25;;;3.85;;
52650;SDS011;38537;47.226;39.702;2023-04-03T04:30:24;5.80;;;4.30;;
52650;SDS011;38537;47.226;39.702;2023-04-03T04:32:52;11.20;;;3.95;;
52650;SDS011;38537;47.226;39.702;2023-04-03T04:35:19;6.22;;;3.47;;
52650;SDS011;38537;47.226;39.702;2023-04-03T04:37:49;7.05;;;3.95;;
52650;SDS011;38537;47.226;39.702;2023-04-03T04:40:17;6.00;;;3.88;;
52650;SDS011;38537;47.226;39.702;2023-04-03T04:42:44;7.35;;;3.65;;
52650;SDS011;38537;47.226;39.702;2023-04-03T04:45:12;5.60;;;3.17;;
52650;SDS011;38537;47.226;39.702;2023-04-03T04:47:42;4.20;;;3.45;;
52650;SDS011;38537;47.226;39.702;2023-04-03T04:50:11;5.40;;;3.78;;
52650;SDS011;38537;47.226;39.702;2023-04-03T04:52:40;7.97;;;4.18;;
52650;SDS011;38537;47.226;39.702;2023-04-03T04:55:08;7.45;;;4.13;;
52650;SDS011;38537;47.226;39.702;2023-04-03T04:57:35;12.18;;;4.30;;
52650;SDS011;38537;47.226;39.702;2023-04-03T05:00:06;4.95;;;3.55;;
52650;SDS011;38537;47.226;39.702;2023-04-03T05:02:35;7.57;;;3.78;;
52650;SDS011;38537;47.226;39.702;2023-04-03T05:05:02;7.35;;;3.70;;
52650;SDS011;38537;47.226;39.702;2023-04-03T05:07:32;8.07;;;4.30;;
52650;SDS011;38537;47.226;39.702;2023-04-03T05:10:01;6.78;;;4.25;;
52650;SDS011;38537;47.226;39.702;2023-04-03T05:12:30;6.55;;;4.10;;
52650;SDS011;38537;47.226;39.702;2023-04-03T05:15:00;6.82;;;3.70;;
52650;SDS011;38537;47.226;39.702;2023-04-03T05:17:30;9.02;;;4.15;;
52650;SDS011;38537;47.226;39.702;2023-04-03T05:19:57;7.63;;;3.80;;
52650;SDS011;38537;47.226;39.702;2023-04-03T05:22:28;6.57;;;3.50;;
52650;SDS011;38537;47.226;39.702;2023-04-03T05:25:02;12.45;;;4.22;;
52650;SDS011;38537;47.226;39.702;2023-04-03T05:27:29;12.13;;;4.30;;
52650;SDS011;38537;47.226;39.702;2023-04-03T05:29:57;9.30;;;4.35;;
52650;SDS011;38537;47.226;39.702;2023-04-03T05:32:25;10.73;;;4.72;;
52650;SDS011;38537;47.226;39.702;2023-04-03T05:35:14;5.93;;;3.30;;
52650;SDS011;38537;47.226;39.702;2023-04-03T05:37:43;5.10;;;2.90;;
52650;SDS011;38537;47.226;39.702;2023-04-03T05:40:10;7.05;;;3.53;;
52650;SDS011;38537;47.226;39.702;2023-04-03T05:42:41;10.13;;;4.00;;
52650;SDS011;38537;47.226;39.702;2023-04-03T05:45:09;9.65;;;4.60;;
52650;SDS011;38537;47.226;39.702;2023-04-03T05:47:37;9.57;;;5.00;;
52650;SDS011;38537;47.226;39.702;2023-04-03T05:50:06;9.88;;;4.82;;
52650;SDS011;38537;47.226;39.702;2023-04-03T05:52:35;9.65;;;4.95;;
52650;SDS011;38537;47.226;39.702;2023-04-03T05:55:04;14.13;;;5.60;;
52650;SDS011;38537;47.226;39.702;2023-04-03T05:57:34;12.00;;;4.68;;
52650;SDS011;38537;47.226;39.702;2023-04-03T06:00:03;7.85;;;3.90;;
52650;SDS011;38537;47.226;39.702;2023-04-03T06:02:39;7.70;;;3.38;;
52650;SDS011;38537;47.226;39.702;2023-04-03T06:05:10;5.82;;;3.50;;
52650;SDS011;38537;47.226;39.702;2023-04-03T06:07:40;7.53;;;4.70;;
52650;SDS011;38537;47.226;39.702;2023-04-03T06:10:10;10.10;;;4.18;;
52650;SDS011;38537;47.226;39.702;2023-04-03T06:12:38;5.82;;;3.38;;
52650;SDS011;38537;47.226;39.702;2023-04-03T06:15:06;8.93;;;4.30;;
52650;SDS011;38537;47.226;39.702;2023-04-03T06:17:35;7.68;;;4.15;;
52650;SDS011;38537;47.226;39.702;2023-04-03T06:20:04;8.77;;;3.70;;
52650;SDS011;38537;47.226;39.702;2023-04-03T06:22:33;6.57;;;3.97;;
52650;SDS011;38537;47.226;39.702;2023-04-03T06:25:00;5.43;;;3.83;;
52650;SDS011;38537;47.226;39.702;2023-04-03T06:27:28;8.13;;;3.85;;
52650;SDS011;38537;47.226;39.702;2023-04-03T06:29:55;7.18;;;3.53;;
52650;SDS011;38537;47.226;39.702;2023-04-03T06:32:22;8.10;;;3.97;;
52650;SDS011;38537;47.226;39.702;2023-04-03T06:34:50;7.80;;;4.25;;
52650;SDS011;38537;47.226;39.702;2023-04-03T06:37:18;8.82;;;4.00;;
52650;SDS011;38537;47.226;39.702;2023-04-03T06:39:48;6.35;;;3.78;;
52650;SDS011;38537;47.226;39.702;2023-04-03T06:42:16;9.63;;;4.45;;
52650;SDS011;38537;47.226;39.702;2023-04-03T06:44:51;7.53;;;4.10;;
52650;SDS011;38537;47.226;39.702;2023-04-03T06:47:19;9.23;;;5.18;;
52650;SDS011;38537;47.226;39.702;2023-04-03T06:49:46;8.77;;;3.92;;
52650;SDS011;38537;47.226;39.702;2023-04-03T06:52:13;8.02;;;3.80;;
52650;SDS011;38537;47.226;39.702;2023-04-03T06:54:41;8.88;;;3.78;;
52650;SDS011;38537;47.226;39.702;2023-04-03T06:57:08;8.77;;;4.10;;
52650;SDS011;38537;47.226;39.702;2023-04-03T06:59:36;8.63;;;3.90;;
52650;SDS011;38537;47.226;39.702;2023-04-03T07:02:04;9.05;;;4.80;;
52650;SDS011;38537;47.226;39.702;2023-04-03T07:04:31;7.88;;;4.32;;
52650;SDS011;38537;47.226;39.702;2023-04-03T07:06:58;6.72;;;4.13;;
52650;SDS011;38537;47.226;39.702;2023-04-03T07:09:26;8.20;;;3.80;;
52650;SDS011;38537;47.226;39.702;2023-04-03T07:11:53;11.02;;;5.40;;
52650;SDS011;38537;47.226;39.702;2023-04-03T07:14:21;6.97;;;3.60;;
52650;SDS011;38537;47.226;39.702;2023-04-03T07:16:48;9.90;;;4.85;;
52650;SDS011;38537;47.226;39.702;2023-04-03T07:19:15;7.97;;;4.03;;
52650;SDS011;38537;47.226;39.702;2023-04-03T07:21:45;8.10;;;3.63;;
52650;SDS011;38537;47.226;39.702;2023-04-03T07:24:12;9.43;;;3.97;;
52650;SDS011;38537;47.226;39.702;2023-04-03T07:26:42;9.32;;;4.00;;
52650;SDS011;38537;47.226;39.702;2023-04-03T07:29:11;11.82;;;4.85;;
52650;SDS011;38537;47.226;39.702;2023-04-03T07:31:39;13.05;;;4.38;;
52650;SDS011;38537;47.226;39.702;2023-04-03T07:34:08;12.95;;;4.30;;
52650;SDS011;38537;47.226;39.702;2023-04-03T07:36:35;8.73;;;3.90;;
52650;SDS011;38537;47.226;39.702;2023-04-03T07:39:03;12.98;;;4.50;;
52650;SDS011;38537;47.226;39.702;2023-04-03T07:41:30;7.53;;;3.97;;
52650;SDS011;38537;47.226;39.702;2023-04-03T07:43:57;7.70;;;3.72;;
52650;SDS011;38537;47.226;39.702;2023-04-03T07:46:25;6.88;;;3.63;;
52650;SDS011;38537;47.226;39.702;2023-04-03T07:48:52;9.07;;;4.38;;
52650;SDS011;38537;47.226;39.702;2023-04-03T07:51:22;7.70;;;3.95;;
52650;SDS011;38537;47.226;39.702;2023-04-03T07:53:51;9.98;;;3.80;;
52650;SDS011;38537;47.226;39.702;2023-04-03T07:56:18;7.05;;;3.70;;
52650;SDS011;38537;47.226;39.702;2023-04-03T07:58:47;9.35;;;3.85;;
52650;SDS011;38537;47.226;39.702;2023-04-03T08:01:14;10.70;;;4.15;;
52650;SDS011;38537;47.226;39.702;2023-04-03T08:03:41;8.98;;;3.65;;
52650;SDS011;38537;47.226;39.702;2023-04-03T08:06:08;11.10;;;3.83;;
52650;SDS011;38537;47.226;39.702;2023-04-03T08:08:41;10.93;;;3.70;;
52650;SDS011;38537;47.226;39.702;2023-04-03T08:11:09;10.77;;;3.50;;
52650;SDS011;38537;47.226;39.702;2023-04-03T08:13:37;10.27;;;3.50;;
52650;SDS011;38537;47.226;39.702;2023-04-03T08:16:09;6.70;;;2.97;;
52650;SDS011;38537;47.226;39.702;2023-04-03T08:18:43;3.75;;;2.70;;
52650;SDS011;38537;47.226;39.702;2023-04-03T08:21:11;7.30;;;3.45;;
52650;SDS011;38537;47.226;39.702;2023-04-03T08:23:39;5.10;;;3.50;;
52650;SDS011;38537;47.226;39.702;2023-04-03T08:26:17;6.60;;;2.83;;
52650;SDS011;38537;47.226;39.702;2023-04-03T08:28:47;8.30;;;4.07;;
52650;SDS011;38537;47.226;39.702;2023-04-03T08:31:15;6.28;;;3.80;;
52650;SDS011;38537;47.226;39.702;2023-04-03T08:33:46;9.02;;;3.75;;
52650;SDS011;38537;47.226;39.702;2023-04-03T08:36:19;6.68;;;3.20;;
52650;SDS011;38537;47.226;39.702;2023-04-03T08:38:49;4.30;;;3.08;;
52650;SDS011;38537;47.226;39.702;2023-04-03T08:41:26;5.65;;;2.97;;
52650;SDS011;38537;47.226;39.702;2023-04-03T08:46:54;5.53;;;2.78;;
52650;SDS011;38537;47.226;39.702;2023-04-03T08:52:10;2.80;;;2.20;;
52650;SDS011;38537;47.226;39.702;2023-04-03T08:54:49;3.08;;;2.10;;
52650;SDS011;38537;47.226;39.702;2023-04-03T08:57:35;3.72;;;2.20;;
52650;SDS011;38537;47.226;39.702;2023-04-03T09:00:07;4.50;;;2.00;;
52650;SDS011;38537;47.226;39.702;2023-04-03T09:02:41;4.88;;;2.33;;
52650;SDS011;38537;47.226;39.702;2023-04-03T09:05:15;2.92;;;2.00;;
52650;SDS011;38537;47.226;39.702;2023-04-03T09:08:07;3.40;;;2.10;;
52650;SDS011;38537;47.226;39.702;2023-04-03T09:13:54;3.63;;;2.30;;
52650;SDS011;38537;47.226;39.702;2023-04-03T09:16:33;3.13;;;2.55;;
52650;SDS011;38537;47.226;39.702;2023-04-03T09:19:19;5.00;;;2.63;;
52650;SDS011;38537;47.226;39.702;2023-04-03T09:24:41;6.45;;;3.20;;
52650;SDS011;38537;47.226;39.702;2023-04-03T09:27:12;4.22;;;2.88;;
52650;SDS011;38537;47.226;39.702;2023-04-03T09:29:40;4.03;;;2.85;;
52650;SDS011;38537;47.226;39.702;2023-04-03T09:32:26;5.90;;;2.78;;
52650;SDS011;38537;47.226;39.702;2023-04-03T09:35:03;4.32;;;2.83;;
52650;SDS011;38537;47.226;39.702;2023-04-03T09:40:37;4.72;;;3.38;;
52650;SDS011;38537;47.226;39.702;2023-04-03T09:43:20;6.25;;;3.28;;
52650;SDS011;38537;47.226;39.702;2023-04-03T09:45:48;6.18;;;3.10;;
52650;SDS011;38537;47.226;39.702;2023-04-03T09:48:18;7.10;;;3.38;;
52650;SDS011;38537;47.226;39.702;2023-04-03T09:55:55;8.18;;;3.60;;
52650;SDS011;38537;47.226;39.702;2023-04-03T09:58:27;5.28;;;3.70;;
52650;SDS011;38537;47.226;39.702;2023-04-03T10:01:34;5.32;;;3.05;;
52650;SDS011;38537;47.226;39.702;2023-04-03T10:09:20;4.68;;;3.53;;
52650;SDS011;38537;47.226;39.702;2023-04-03T10:23:20;4.22;;;2.97;;
52650;SDS011;38537;47.226;39.702;2023-04-03T10:25:32;4.78;;;2.80;;
52650;SDS011;38537;47.226;39.702;2023-04-03T10:28:28;5.30;;;3.53;;
52650;SDS011;38537;47.226;39.702;2023-04-03T10:31:12;3.60;;;2.72;;
52650;SDS011;38537;47.226;39.702;2023-04-03T10:42:08;3.65;;;2.70;;
52650;SDS011;38537;47.226;39.702;2023-04-03T10:53:24;3.75;;;2.92;;
52650;SDS011;38537;47.226;39.702;2023-04-03T10:56:15;3.60;;;2.88;;
52650;SDS011;38537;47.226;39.702;2023-04-03T10:58:52;5.63;;;2.90;;
52650;SDS011;38537;47.226;39.702;2023-04-03T11:01:26;4.90;;;2.90;;
52650;SDS011;38537;47.226;39.702;2023-04-03T11:04:00;7.18;;;3.20;;
52650;SDS011;38537;47.226;39.702;2023-04-03T11:06:31;4.68;;;3.20;;
52650;SDS011;38537;47.226;39.702;2023-04-03T11:09:07;4.13;;;3.03;;
52650;SDS011;38537;47.226;39.702;2023-04-03T11:12:19;6.50;;;3.03;;
52650;SDS011;38537;47.226;39.702;2023-04-03T11:14:55;6.07;;;4.00;;
52650;SDS011;38537;47.226;39.702;2023-04-03T11:17:33;3.45;;;3.15;;
52650;SDS011;38537;47.226;39.702;2023-04-03T11:20:26;6.93;;;3.25;;
52650;SDS011;38537;47.226;39.702;2023-04-03T11:23:01;5.68;;;4.75;;
52650;SDS011;38537;47.226;39.702;2023-04-03T11:25:34;7.05;;;3.90;;
52650;SDS011;38537;47.226;39.702;2023-04-03T11:28:11;4.28;;;3.30;;
52650;SDS011;38537;47.226;39.702;2023-04-03T11:33:21;7.70;;;4.20;;
52650;SDS011;38537;47.226;39.702;2023-04-03T11:35:55;5.47;;;3.53;;
52650;SDS011;38537;47.226;39.702;2023-04-03T11:38:36;4.13;;;3.30;;
52650;SDS011;38537;47.226;39.702;2023-04-03T11:41:09;4.50;;;3.15;;
52650;SDS011;38537;47.226;39.702;2023-04-03T11:43:42;7.18;;;4.20;;
52650;SDS011;38537;47.226;39.702;2023-04-03T12:13:41;7.30;;;4.90;;
52650;SDS011;38537;47.226;39.702;2023-04-03T12:19:04;5.18;;;4.00;;
52650;SDS011;38537;47.226;39.702;2023-04-03T12:22:05;6.20;;;4.00;;
52650;SDS011;38537;47.226;39.702;2023-04-03T12:24:37;5.32;;;3.47;;
52650;SDS011;38537;47.226;39.702;2023-04-03T12:27:14;6.22;;;3.80;;
52650;SDS011;38537;47.226;39.702;2023-04-03T12:30:25;6.97;;;2.90;;
52650;SDS011;38537;47.226;39.702;2023-04-03T12:36:06;5.47;;;3.30;;
52650;SDS011;38537;47.226;39.702;2023-04-03T12:45:02;4.72;;;2.50;;
52650;SDS011;38537;47.226;39.702;2023-04-03T12:47:34;4.35;;;2.55;;
52650;SDS011;38537;47.226;39.702;2023-04-03T12:50:05;3.10;;;2.30;;
52650;SDS011;38537;47.226;39.702;2023-04-03T12:53:23;4.72;;;2.17;;
52650;SDS011;38537;47.226;39.702;2023-04-03T12:55:46;4.97;;;2.15;;
52650;SDS011;38537;47.226;39.702;2023-04-03T12:58:21;5.00;;;2.47;;
52650;SDS011;38537;47.226;39.702;2023-04-03T13:01:03;6.43;;;2.40;;
52650;SDS011;38537;47.226;39.702;2023-04-03T13:03:41;4.15;;;2.03;;
52650;SDS011;38537;47.226;39.702;2023-04-03T13:06:22;7.18;;;2.50;;
52650;SDS011;38537;47.226;39.702;2023-04-03T13:09:23;4.50;;;2.30;;
52650;SDS011;38537;47.226;39.702;2023-04-03T13:11:59;3.97;;;2.75;;
52650;SDS011;38537;47.226;39.702;2023-04-03T13:16:57;4.57;;;2.85;;
52650;SDS011;38537;47.226;39.702;2023-04-03T13:19:27;4.93;;;2.88;;
52650;SDS011;38537;47.226;39.702;2023-04-03T13:22:02;4.60;;;2.78;;
52650;SDS011;38537;47.226;39.702;2023-04-03T13:24:35;6.45;;;2.90;;
52650;SDS011;38537;47.226;39.702;2023-04-03T13:27:04;6.30;;;2.85;;
52650;SDS011;38537;47.226;39.702;2023-04-03T13:29:35;8.15;;;2.80;;
52650;SDS011;38537;47.226;39.702;2023-04-03T13:32:04;4.25;;;2.78;;
52650;SDS011;38537;47.226;39.702;2023-04-03T13:34:37;4.25;;;3.17;;
52650;SDS011;38537;47.226;39.702;2023-04-03T13:37:19;5.65;;;2.85;;
52650;SDS011;38537;47.226;39.702;2023-04-03T13:42:30;5.22;;;2.95;;
52650;SDS011;38537;47.226;39.702;2023-04-03T13:45:16;5.28;;;2.90;;
52650;SDS011;38537;47.226;39.702;2023-04-03T13:50:50;4.25;;;2.92;;
52650;SDS011;38537;47.226;39.702;2023-04-03T13:53:24;4.68;;;3.25;;
52650;SDS011;38537;47.226;39.702;2023-04-03T13:58:31;3.30;;;2.60;;
52650;SDS011;38537;47.226;39.702;2023-04-03T14:01:05;4.55;;;2.80;;
52650;SDS011;38537;47.226;39.702;2023-04-03T14:03:58;4.50;;;2.60;;
52650;SDS011;38537;47.226;39.702;2023-04-03T14:06:28;6.70;;;3.17;;
52650;SDS011;38537;47.226;39.702;2023-04-03T14:08:55;5.13;;;3.22;;
52650;SDS011;38537;47.226;39.702;2023-04-03T14:11:28;5.50;;;2.92;;
52650;SDS011;38537;47.226;39.702;2023-04-03T14:13:58;3.83;;;2.65;;
52650;SDS011;38537;47.226;39.702;2023-04-03T14:16:29;7.70;;;2.90;;
52650;SDS011;38537;47.226;39.702;2023-04-03T14:18:59;6.15;;;2.92;;
52650;SDS011;38537;47.226;39.702;2023-04-03T14:21:26;8.13;;;2.95;;
52650;SDS011;38537;47.226;39.702;2023-04-03T14:23:56;5.93;;;2.63;;
52650;SDS011;38537;47.226;39.702;2023-04-03T14:26:23;3.30;;;2.42;;
52650;SDS011;38537;47.226;39.702;2023-04-03T14:28:54;4.93;;;2.70;;
52650;SDS011;38537;47.226;39.702;2023-04-03T14:31:22;6.55;;;2.47;;
52650;SDS011;38537;47.226;39.702;2023-04-03T14:33:50;5.60;;;2.92;;
52650;SDS011;38537;47.226;39.702;2023-04-03T14:36:22;8.05;;;3.45;;
52650;SDS011;38537;47.226;39.702;2023-04-03T14:38:52;10.32;;;3.88;;
52650;SDS011;38537;47.226;39.702;2023-04-03T14:41:22;10.25;;;4.00;;
52650;SDS011;38537;47.226;39.702;2023-04-03T14:43:50;6.70;;;3.80;;
52650;SDS011;38537;47.226;39.702;2023-04-03T14:46:32;10.98;;;4.18;;
52650;SDS011;38537;47.226;39.702;2023-04-03T14:49:24;7.57;;;3.83;;
52650;SDS011;38537;47.226;39.702;2023-04-03T14:51:56;5.70;;;3.30;;
52650;SDS011;38537;47.226;39.702;2023-04-03T14:54:24;6.03;;;3.28;;
52650;SDS011;38537;47.226;39.702;2023-04-03T14:56:56;9.23;;;4.53;;
52650;SDS011;38537;47.226;39.702;2023-04-03T14:59:27;9.57;;;4.18;;
52650;SDS011;38537;47.226;39.702;2023-04-03T15:01:55;5.10;;;3.33;;
52650;SDS011;38537;47.226;39.702;2023-04-03T15:04:22;5.47;;;3.70;;
52650;SDS011;38537;47.226;39.702;2023-04-03T15:06:50;8.07;;;3.15;;
52650;SDS011;38537;47.226;39.702;2023-04-03T15:09:19;7.13;;;3.67;;
52650;SDS011;38537;47.226;39.702;2023-04-03T15:11:48;9.45;;;4.45;;
52650;SDS011;38537;47.226;39.702;2023-04-03T15:14:18;9.27;;;4.60;;
52650;SDS011;38537;47.226;39.702;2023-04-03T15:17:06;11.27;;;5.18;;
52650;SDS011;38537;47.226;39.702;2023-04-03T15:19:41;12.75;;;5.05;;
52650;SDS011;38537;47.226;39.702;2023-04-03T15:22:15;8.77;;;4.40;;
52650;SDS011;38537;47.226;39.702;2023-04-03T15:24:45;16.27;;;5.47;;
52650;SDS011;38537;47.226;39.702;2023-04-03T15:27:13;12.80;;;4.88;;
52650;SDS011;38537;47.226;39.702;2023-04-03T15:29:42;18.63;;;6.25;;
52650;SDS011;38537;47.226;39.702;2023-04-03T15:32:11;15.18;;;5.70;;
52650;SDS011;38537;47.226;39.702;2023-04-03T15:34:40;9.10;;;4.72;;
52650;SDS011;38537;47.226;39.702;2023-04-03T15:37:07;12.85;;;5.90;;
52650;SDS011;38537;47.226;39.702;2023-04-03T15:39:35;9.55;;;4.85;;
52650;SDS011;38537;47.226;39.702;2023-04-03T15:42:02;14.85;;;4.78;;
52650;SDS011;38537;47.226;39.702;2023-04-03T15:44:34;11.43;;;4.63;;
52650;SDS011;38537;47.226;39.702;2023-04-03T15:47:01;11.32;;;4.70;;
52650;SDS011;38537;47.226;39.702;2023-04-03T15:49:29;11.93;;;5.32;;
52650;SDS011;38537;47.226;39.702;2023-04-03T15:51:59;9.95;;;5.60;;
52650;SDS011;38537;47.226;39.702;2023-04-03T15:54:27;9.20;;;5.53;;
52650;SDS011;38537;47.226;39.702;2023-04-03T15:56:56;9.32;;;5.40;;
52650;SDS011;38537;47.226;39.702;2023-04-03T15:59:24;10.20;;;4.15;;
52650;SDS011;38537;47.226;39.702;2023-04-03T16:01:51;20.13;;;5.22;;
52650;SDS011;38537;47.226;39.702;2023-04-03T16:04:19;8.50;;;3.95;;
52650;SDS011;38537;47.226;39.702;2023-04-03T16:06:48;8.38;;;4.25;;
52650;SDS011;38537;47.226;39.702;2023-04-03T16:09:16;8.25;;;4.55;;
52650;SDS011;38537;47.226;39.702;2023-04-03T16:11:43;11.15;;;5.15;;
52650;SDS011;38537;47.226;39.702;2023-04-03T16:14:11;12.80;;;5.05;;
52650;SDS011;38537;47.226;39.702;2023-04-03T16:16:38;10.77;;;4.80;;
52650;SDS011;38537;47.226;39.702;2023-04-03T16:19:06;13.70;;;5.78;;
52650;SDS011;38537;47.226;39.702;2023-04-03T16:21:33;18.23;;;5.40;;
52650;SDS011;38537;47.226;39.702;2023-04-03T16:24:01;11.90;;;5.63;;
52650;SDS011;38537;47.226;39.702;2023-04-03T16:26:28;14.13;;;5.43;;
52650;SDS011;38537;47.226;39.702;2023-04-03T16:28:56;12.75;;;5.60;;
52650;SDS011;38537;47.226;39.702;2023-04-03T16:31:23;15.57;;;5.22;;
52650;SDS011;38537;47.226;39.702;2023-04-03T16:33:52;18.98;;;6.63;;
52650;SDS011;38537;47.226;39.702;2023-04-03T16:36:21;15.25;;;5.95;;
52650;SDS011;38537;47.226;39.702;2023-04-03T16:38:48;14.75;;;5.72;;
52650;SDS011;38537;47.226;39.702;2023-04-03T16:41:15;16.85;;;6.00;;
52650;SDS011;38537;47.226;39.702;2023-04-03T16:43:44;22.10;;;6.07;;
52650;SDS011;38537;47.226;39.702;2023-04-03T16:46:11;14.27;;;5.63;;